Time;durP1;ratioP1;P1;durP2;ratioP2;P2;SDS_P1;SDS_P2;PMS_P1;PMS_P2;Temp;Humidity;BMP_temperature;BMP_pressure;BME280_temperature;BME280_humidity;BME280_pressure;Samples;Min_cycle;Max_cycle;Signal;HPM_P1;HPM_P2
2023/11/12 00:02:10;;;;;;;;;13.00;12.00;;;;;11.71;82.16;100075.31;5064943;27;46010;-63
2023/11/12 00:04:35;;;;;;;;;13.75;12.75;;;;;11.68;82.33;100064.75;5061135;28;45410;-63
2023/11/12 00:07:01;;;;;;;;;12.50;11.00;;;;;11.67;82.06;100063.00;5061076;28;45475;-63
2023/11/12 00:09:27;;;;;;;;;17.00;14.00;;;;;11.72;81.83;100076.16;5061080;28;45403;-63
2023/11/12 00:11:53;;;;;;;;;13.25;12.75;;;;;11.66;82.07;100067.50;5075439;28;45352;-63
2023/11/12 00:14:19;;;;;;;;;16.00;14.00;;;;;11.56;81.82;100055.50;5060973;27;45389;-63
2023/11/12 00:16:44;;;;;;;;;18.00;15.50;;;;;11.63;82.23;100072.13;5060644;28;45264;-63
2023/11/12 00:19:09;;;;;;;;;19.25;14.50;;;;;11.61;82.31;100071.31;5060526;28;57753;-63
2023/11/12 00:21:34;;;;;;;;;11.75;11.50;;;;;11.61;82.12;100071.31;5059737;28;70364;-63
2023/11/12 00:24:01;;;;;;;;;15.75;13.00;;;;;11.50;81.95;100070.00;5060109;28;64508;-63
2023/11/12 00:26:28;;;;;;;;;10.75;9.00;;;;;11.45;82.41;100061.34;5060842;28;45331;-63
2023/11/12 00:28:54;;;;;;;;;19.75;16.50;;;;;11.41;82.34;100057.09;5068963;28;45318;-63
2023/11/12 00:31:22;;;;;;;;;15.25;12.75;;;;;11.42;82.57;100041.91;5076525;27;47157;-63
2023/11/12 00:33:47;;;;;;;;;17.00;14.50;;;;;11.42;82.58;100033.91;5071428;27;45579;-63
2023/11/12 00:36:12;;;;;;;;;16.00;14.50;;;;;11.46;82.32;100036.38;5073212;28;45465;-63
2023/11/12 00:38:38;;;;;;;;;15.75;12.75;;;;;11.43;82.67;100022.28;5060478;28;50348;-63
2023/11/12 00:41:04;;;;;;;;;14.00;13.50;;;;;11.44;82.69;100011.53;5060497;28;45311;-63
2023/11/12 00:43:30;;;;;;;;;16.00;15.00;;;;;11.39;82.38;99989.47;5070487;28;45578;-63
2023/11/12 00:45:59;;;;;;;;;11.25;10.50;;;;;11.41;82.30;100003.66;5067373;28;51545;-63
2023/11/12 00:48:24;;;;;;;;;14.75;12.50;;;;;11.40;82.49;100007.25;5080708;27;45545;-63
2023/11/12 00:50:50;;;;;;;;;11.25;10.50;;;;;11.37;82.64;100006.53;5064418;27;45452;-63
2023/11/12 00:53:15;;;;;;;;;12.50;11.00;;;;;11.16;82.66;99977.22;5060360;28;46732;-63
2023/11/12 00:55:40;;;;;;;;;11.50;11.25;;;;;11.37;82.97;100001.19;5071523;28;61447;-63
2023/11/12 00:58:06;;;;;;;;;15.00;11.25;;;;;11.37;82.49;99978.00;5059744;28;59102;-63
2023/11/12 01:00:31;;;;;;;;;16.75;15.25;;;;;11.37;82.56;99971.78;5059715;28;51069;-63
2023/11/12 01:02:57;;;;;;;;;13.50;12.50;;;;;11.37;82.67;99969.13;5060368;28;46715;-63
2023/11/12 01:05:22;;;;;;;;;14.50;10.75;;;;;11.36;82.69;99973.63;5060127;28;45418;-63
2023/11/12 01:07:48;;;;;;;;;12.00;10.50;;;;;11.27;82.65;99977.56;5059755;28;49566;-63
2023/11/12 01:10:13;;;;;;;;;11.00;11.00;;;;;11.32;82.82;99988.91;5059977;28;45642;-63
2023/11/12 01:12:38;;;;;;;;;13.50;11.50;;;;;11.32;82.68;99977.34;5075711;28;45851;-63
2023/11/12 01:15:04;;;;;;;;;10.75;10.00;;;;;11.26;82.70;99958.94;5059897;28;45256;-63
2023/11/12 01:17:30;;;;;;;;;7.50;7.50;;;;;11.28;82.80;99952.59;5058651;28;46014;-63
2023/11/12 01:19:55;;;;;;;;;10.25;9.50;;;;;11.30;82.75;99960.53;5059838;28;45506;-63
2023/11/12 01:22:21;;;;;;;;;12.75;10.00;;;;;11.35;82.98;99973.69;5058530;28;45316;-63
2023/11/12 01:24:46;;;;;;;;;10.75;8.00;;;;;11.30;83.23;99958.72;5068782;28;45404;-63
2023/11/12 01:27:11;;;;;;;;;11.75;10.50;;;;;11.29;82.84;99953.44;5059142;28;62659;-63
2023/11/12 01:29:37;;;;;;;;;10.00;9.00;;;;;11.32;83.24;99951.50;5059115;28;53022;-63
2023/11/12 01:32:02;;;;;;;;;9.50;8.00;;;;;11.32;83.03;99967.53;5076432;28;62619;-63
2023/11/12 01:34:27;;;;;;;;;10.50;6.00;;;;;11.30;83.48;99966.72;5065252;28;45439;-63
2023/11/12 01:36:53;;;;;;;;;7.25;5.75;;;;;11.31;83.38;99967.63;5072367;27;48758;-63
2023/11/12 01:39:18;;;;;;;;;9.75;6.25;;;;;11.35;83.53;99974.53;5059505;28;46024;-63
2023/11/12 01:41:43;;;;;;;;;6.00;6.00;;;;;11.27;83.36;99968.69;5059762;28;45492;-63
2023/11/12 01:44:09;;;;;;;;;6.75;6.00;;;;;11.41;83.45;99992.97;5073583;28;45334;-63
2023/11/12 01:46:35;;;;;;;;;6.50;5.50;;;;;11.39;83.21;99986.81;5065790;28;45956;-63
2023/11/12 01:49:01;;;;;;;;;7.00;7.00;;;;;11.42;83.17;100000.03;5072926;28;45484;-63
2023/11/12 01:51:29;;;;;;;;;5.75;5.75;;;;;11.45;83.65;100009.72;5059664;28;45378;-63
2023/11/12 01:53:55;;;;;;;;;6.00;5.00;;;;;11.42;83.17;99994.66;5060415;28;45303;-63
2023/11/12 01:56:21;;;;;;;;;5.00;5.00;;;;;11.44;83.59;100005.28;5060020;28;45478;-63
2023/11/12 01:58:51;;;;;;;;;7.50;6.00;;;;;11.42;83.69;100005.38;5059058;28;46400;-63
2023/11/12 02:01:17;;;;;;;;;7.50;4.25;;;;;11.39;83.84;100004.66;5059302;28;45381;-63
2023/11/12 02:03:42;;;;;;;;;5.00;5.00;;;;;11.40;83.68;100003.72;5057996;28;45469;-63
2023/11/12 02:06:09;;;;;;;;;7.25;4.00;;;;;11.32;83.85;99982.69;5059063;28;45377;-64
2023/11/12 02:08:35;;;;;;;;;5.50;4.50;;;;;11.39;83.90;99985.94;5057491;28;47958;-63
2023/11/12 02:11:07;;;;;;;;;4.25;3.75;;;;;11.37;83.79;99996.69;5069877;27;45445;-63
2023/11/12 02:13:35;;;;;;;;;3.00;3.00;;;;;11.34;84.18;99991.50;5059149;27;45365;-63
2023/11/12 02:16:01;;;;;;;;;5.75;4.00;;;;;11.31;83.75;99978.31;5058023;28;45571;-63
2023/11/12 02:18:26;;;;;;;;;5.50;3.75;;;;;11.33;83.89;99987.13;5087249;27;47118;-63
2023/11/12 02:20:51;;;;;;;;;4.75;4.00;;;;;11.30;84.38;99976.56;5059150;28;45240;-63
2023/11/12 02:23:17;;;;;;;;;4.00;3.00;;;;;11.32;83.98;99978.22;5057973;28;62097;-63
2023/11/12 02:25:44;;;;;;;;;5.75;3.75;;;;;11.29;83.97;99974.81;5062659;27;45496;-63
2023/11/12 02:28:10;;;;;;;;;3.00;3.00;;;;;11.21;83.98;99966.31;5061539;28;45678;-63
2023/11/12 02:30:37;;;;;;;;;5.00;2.75;;;;;11.26;83.92;99977.63;5074590;27;45586;-63
2023/11/12 02:33:03;;;;;;;;;3.25;2.50;;;;;11.31;84.43;99983.66;5076137;27;45458;-63
2023/11/12 02:35:29;;;;;;;;;2.50;2.50;;;;;11.31;84.54;99979.16;5057027;28;45561;-63
2023/11/12 02:37:55;;;;;;;;;5.00;4.50;;;;;11.25;84.55;99966.09;5074362;28;46144;-63
2023/11/12 02:40:21;;;;;;;;;2.25;2.00;;;;;11.28;83.94;99973.97;5069062;27;45354;-63
2023/11/12 02:42:47;;;;;;;;;5.00;3.00;;;;;11.31;84.42;99975.63;5062842;28;45311;-63
2023/11/12 02:45:13;;;;;;;;;5.00;4.00;;;;;11.24;84.31;99974.19;5066356;27;45255;-63
2023/11/12 02:47:41;;;;;;;;;7.00;4.00;;;;;11.26;84.54;99977.63;5067632;28;46103;-63
2023/11/12 02:50:31;;;;;;;;;4.25;3.50;;;;;11.27;84.76;99974.03;5067981;27;45381;-63
2023/11/12 02:53:00;;;;;;;;;6.50;3.50;;;;;11.20;84.26;99961.91;5065332;28;45425;-63
2023/11/12 02:55:27;;;;;;;;;2.25;2.25;;;;;11.20;84.50;99960.09;5064292;27;45460;-63
2023/11/12 02:57:52;;;;;;;;;5.25;3.75;;;;;11.18;84.65;99963.81;5069463;28;45460;-63
2023/11/12 03:00:17;;;;;;;;;2.25;2.25;;;;;11.26;84.31;99982.97;5058206;28;45464;-63
2023/11/12 03:02:46;;;;;;;;;5.25;2.75;;;;;11.25;84.51;99978.59;5057497;28;45366;-63
2023/11/12 03:05:12;;;;;;;;;2.50;1.75;;;;;11.26;84.34;99974.97;5058604;28;45256;-63
2023/11/12 03:07:37;;;;;;;;;5.50;3.25;;;;;11.23;84.36;99975.13;5071341;28;46189;-63
2023/11/12 03:10:03;;;;;;;;;4.25;2.50;;;;;11.19;84.46;99970.84;5062748;28;49046;-63
2023/11/12 03:12:29;;;;;;;;;3.00;2.00;;;;;11.19;84.59;99965.53;5058679;28;45376;-63
2023/11/12 03:14:54;;;;;;;;;1.25;1.00;;;;;11.19;84.81;99960.19;5057936;28;45517;-63
2023/11/12 03:17:19;;;;;;;;;3.25;2.75;;;;;11.13;84.64;99942.66;5071909;28;46124;-63
2023/11/12 03:19:45;;;;;;;;;4.50;3.25;;;;;11.15;84.67;99939.91;5070361;28;45381;-63
2023/11/12 03:22:10;;;;;;;;;2.00;2.00;;;;;11.16;84.85;99949.63;5072097;27;45455;-63
2023/11/12 03:24:36;;;;;;;;;3.50;2.00;;;;;11.12;84.19;99949.78;5064914;28;45360;-63
2023/11/12 03:27:01;;;;;;;;;4.00;2.75;;;;;11.10;84.44;99946.31;5058631;28;45472;-63
2023/11/12 03:29:27;;;;;;;;;3.25;3.25;;;;;11.14;84.72;99960.38;5057729;28;45343;-63
2023/11/12 03:31:54;;;;;;;;;2.00;2.00;;;;;11.15;84.86;99964.81;5069989;28;46543;-63
2023/11/12 03:34:19;;;;;;;;;3.25;3.25;;;;;11.13;84.84;99959.53;5058314;28;45548;-63
2023/11/12 03:36:45;;;;;;;;;2.25;2.25;;;;;11.10;84.45;99966.81;5063746;28;47110;-63
2023/11/12 03:39:11;;;;;;;;;3.00;1.25;;;;;11.13;84.69;99962.19;5064350;28;45341;-63
2023/11/12 03:41:36;;;;;;;;;2.50;2.50;;;;;11.15;84.82;99964.81;5058348;28;45327;-63
2023/11/12 03:44:04;;;;;;;;;3.75;1.25;;;;;11.12;84.64;99968.47;5058304;28;45381;-63
2023/11/12 03:46:29;;;;;;;;;2.75;1.75;;;;;11.13;84.81;99972.88;5063889;28;48054;-63
2023/11/12 03:48:55;;;;;;;;;3.00;1.00;;;;;11.12;84.25;99965.78;5067392;28;45404;-63
2023/11/12 03:51:20;;;;;;;;;2.00;2.00;;;;;11.10;84.64;99964.16;5061459;28;45370;-63
2023/11/12 03:53:45;;;;;;;;;4.00;1.25;;;;;11.04;84.49;99957.31;5060000;28;68971;-63
2023/11/12 03:56:11;;;;;;;;;4.25;2.00;;;;;11.06;84.49;99967.88;5060482;28;72832;-63
2023/11/12 03:58:37;;;;;;;;;2.00;2.00;;;;;11.05;84.74;99969.69;5061075;28;45444;-63
2023/11/12 04:01:02;;;;;;;;;3.00;1.25;;;;;11.04;84.76;99953.75;5061418;28;45351;-63
2023/11/12 04:03:28;;;;;;;;;2.50;1.25;;;;;11.01;84.85;99951.22;5061044;28;45416;-63
2023/11/12 04:05:53;;;;;;;;;2.00;1.75;;;;;11.02;84.95;99943.13;5067042;28;48295;-63
2023/11/12 04:08:19;;;;;;;;;1.00;1.00;;;;;11.08;84.39;99960.69;5066201;27;67720;-63
2023/11/12 04:10:46;;;;;;;;;4.00;2.00;;;;;11.05;84.71;99959.03;5061311;28;45377;-63
2023/11/12 04:13:11;;;;;;;;;2.00;2.00;;;;;11.00;85.05;99945.00;5060993;28;45522;-63
2023/11/12 04:15:37;;;;;;;;;1.00;1.00;;;;;11.08;85.14;99960.69;5066225;27;45233;-63
2023/11/12 04:18:02;;;;;;;;;2.00;2.00;;;;;10.94;84.65;99932.84;5068793;27;45479;-63
2023/11/12 04:20:29;;;;;;;;;1.50;1.50;;;;;11.04;84.71;99954.63;5064359;28;45651;-63
2023/11/12 04:22:55;;;;;;;;;2.00;2.00;;;;;11.03;84.42;99944.03;5073097;28;45551;-63
2023/11/12 04:25:20;;;;;;;;;3.25;2.75;;;;;10.93;84.92;99940.91;5061395;27;45385;-63
2023/11/12 04:27:46;;;;;;;;;3.25;2.00;;;;;10.92;84.64;99931.16;5064315;28;45378;-63
2023/11/12 04:30:11;;;;;;;;;2.50;2.00;;;;;10.93;84.69;99938.25;5073861;28;46472;-63
2023/11/12 04:32:38;;;;;;;;;2.00;1.75;;;;;10.93;84.31;99938.25;5080676;27;45440;-63
2023/11/12 04:35:07;;;;;;;;;2.50;1.00;;;;;10.91;84.55;99938.31;5067307;27;45340;-63
2023/11/12 04:37:32;;;;;;;;;1.00;1.00;;;;;10.90;84.44;99938.38;5080907;27;45247;-63
2023/11/12 04:40:00;;;;;;;;;1.00;1.00;;;;;10.90;84.53;99939.22;5080390;28;63498;-63
2023/11/12 04:42:25;;;;;;;;;1.00;1.00;;;;;10.89;84.38;99941.97;5080259;27;45646;-63
2023/11/12 04:44:51;;;;;;;;;1.00;0.50;;;;;10.89;85.00;99937.53;5060047;28;46209;-63
2023/11/12 04:47:16;;;;;;;;;1.75;0.75;;;;;10.82;84.93;99929.84;5065492;28;68447;-63
2023/11/12 04:49:42;;;;;;;;;1.00;1.00;;;;;10.88;84.40;99932.25;5073483;27;45394;-63
2023/11/12 04:52:07;;;;;;;;;1.00;0.75;;;;;10.88;84.65;99929.59;5073988;28;45475;-63
2023/11/12 04:54:32;;;;;;;;;1.00;1.00;;;;;10.80;84.60;99921.91;5065912;28;56776;-63
2023/11/12 04:56:58;;;;;;;;;0.00;0.00;;;;;10.80;84.76;99919.25;5070153;28;57412;-63
2023/11/12 04:59:23;;;;;;;;;1.00;1.00;;;;;10.74;84.42;99908.84;5059482;28;50920;-63
2023/11/12 05:01:49;;;;;;;;;3.00;1.00;;;;;10.79;84.26;99917.50;5071947;28;74389;-63
2023/11/12 05:04:14;;;;;;;;;2.00;1.00;;;;;10.75;84.63;99914.13;5079198;28;47422;-63
2023/11/12 05:06:40;;;;;;;;;0.50;0.00;;;;;10.73;84.03;99902.66;5079865;27;45335;-63
2023/11/12 05:09:05;;;;;;;;;0.00;0.00;;;;;10.71;83.93;99901.88;5060528;28;45568;-63
2023/11/12 05:11:31;;;;;;;;;3.00;1.00;;;;;10.74;83.04;99909.72;5060314;28;45346;-63
2023/11/12 05:13:56;;;;;;;;;1.00;1.00;;;;;10.60;83.23;99892.63;5059899;27;46294;-63
2023/11/12 05:16:21;;;;;;;;;1.00;0.00;;;;;10.55;83.49;99884.81;5071990;28;45346;-63
2023/11/12 05:18:46;;;;;;;;;1.00;1.00;;;;;10.59;84.11;99893.53;5060382;27;65187;-63
2023/11/12 05:21:12;;;;;;;;;0.00;0.00;;;;;10.59;84.09;99886.41;5071490;28;63907;-63
2023/11/12 05:23:37;;;;;;;;;0.00;0.00;;;;;10.59;84.12;99878.38;5073615;28;46060;-63
2023/11/12 05:26:03;;;;;;;;;1.00;1.00;;;;;10.63;84.52;99868.47;5066205;28;68019;-63
2023/11/12 05:28:29;;;;;;;;;0.50;0.50;;;;;10.63;83.60;99871.13;5059892;28;45370;-63
2023/11/12 05:30:57;;;;;;;;;1.00;1.00;;;;;10.56;83.69;99873.22;5067346;28;45465;-62
2023/11/12 05:33:23;;;;;;;;;0.50;0.00;;;;;10.53;84.71;99866.22;5073881;27;46383;-63
2023/11/12 05:35:48;;;;;;;;;1.25;1.25;;;;;10.63;84.92;99873.81;5072741;28;45377;-63
2023/11/12 05:38:14;;;;;;;;;1.00;1.00;;;;;10.65;84.76;99878.13;5072402;28;45394;-63
2023/11/12 05:40:40;;;;;;;;;0.00;0.00;;;;;10.61;83.95;99871.19;5072675;28;45271;-62
2023/11/12 05:43:05;;;;;;;;;0.00;0.00;;;;;10.62;84.15;99878.25;5066853;27;45479;-63
2023/11/12 05:45:30;;;;;;;;;0.50;0.50;;;;;10.62;83.48;99878.25;5066478;28;47079;-63
2023/11/12 05:47:57;;;;;;;;;0.00;0.00;;;;;10.53;83.95;99860.00;5071047;28;45350;-62
2023/11/12 05:50:23;;;;;;;;;1.00;1.00;;;;;10.50;84.22;99866.34;5066103;27;45555;-63
2023/11/12 05:52:48;;;;;;;;;2.00;1.00;;;;;10.56;84.71;99887.41;5059367;28;45301;-63
2023/11/12 05:55:14;;;;;;;;;1.00;1.00;;;;;10.57;84.69;99883.81;5059528;28;45323;-63
2023/11/12 05:57:40;;;;;;;;;1.00;0.00;;;;;10.60;84.39;99880.13;5070453;28;45401;-63
2023/11/12 06:00:07;;;;;;;;;1.00;1.00;;;;;10.55;83.36;99876.81;5059171;28;45544;-63
2023/11/12 06:02:33;;;;;;;;;0.25;0.25;;;;;10.60;84.62;99882.81;5059226;28;45389;-63
2023/11/12 06:04:58;;;;;;;;;1.00;1.00;;;;;10.63;84.52;99892.47;5059285;28;45326;-63
2023/11/12 06:07:24;;;;;;;;;3.00;0.50;;;;;10.59;84.52;99880.19;5058164;28;69486;-63
2023/11/12 06:09:49;;;;;;;;;1.50;0.50;;;;;10.64;84.47;99879.06;5056949;28;45343;-63
2023/11/12 06:12:15;;;;;;;;;0.00;0.00;;;;;10.54;83.84;99869.72;5059225;28;46091;-63
2023/11/12 06:14:41;;;;;;;;;0.75;0.00;;;;;10.52;84.12;99875.16;5058712;27;45383;-63
2023/11/12 06:17:06;;;;;;;;;1.00;0.00;;;;;10.53;84.08;99876.88;5072892;28;45722;-63
2023/11/12 06:19:31;;;;;;;;;0.75;0.00;;;;;10.45;84.41;99859.50;5067389;28;45837;-63
2023/11/12 06:21:57;;;;;;;;;0.00;0.00;;;;;10.45;84.44;99857.69;5060882;28;45302;-62
2023/11/12 06:24:22;;;;;;;;;0.00;0.00;;;;;10.34;84.02;99846.63;5059089;28;45485;-63
2023/11/12 06:26:47;;;;;;;;;0.00;0.00;;;;;10.40;83.83;99875.72;5064094;28;45346;-63
2023/11/12 06:29:13;;;;;;;;;1.00;1.00;;;;;10.27;84.35;99864.69;5067667;27;45355;-63
2023/11/12 06:31:39;;;;;;;;;2.00;0.00;;;;;10.35;84.76;99877.72;5072243;28;54269;-63
2023/11/12 06:34:04;;;;;;;;;1.00;1.00;;;;;10.22;84.72;99855.19;5067273;27;45761;-63
2023/11/12 06:36:29;;;;;;;;;0.00;0.00;;;;;10.34;85.09;99876.88;5077598;28;45433;-63
2023/11/12 06:38:55;;;;;;;;;0.00;0.00;;;;;10.35;84.81;99877.72;5079201;27;45429;-63
2023/11/12 06:41:20;;;;;;;;;1.00;0.00;;;;;10.31;85.03;99868.97;5078908;27;47122;-63
2023/11/12 06:43:45;;;;;;;;;1.00;0.00;;;;;10.35;84.83;99878.59;5066179;28;65675;-63
2023/11/12 06:46:11;;;;;;;;;0.00;0.00;;;;;10.33;84.75;99872.47;5057693;28;64242;-63
2023/11/12 06:48:36;;;;;;;;;0.75;0.75;;;;;10.26;84.68;99875.47;5067236;28;45547;-63
2023/11/12 06:51:02;;;;;;;;;1.00;0.00;;;;;10.23;85.22;99881.78;5078938;27;46140;-63
2023/11/12 06:53:27;;;;;;;;;0.00;0.00;;;;;10.23;85.20;99884.44;5071154;27;45323;-63
2023/11/12 06:55:53;;;;;;;;;0.00;0.00;;;;;10.27;85.72;99875.34;5073816;27;45350;-63
2023/11/12 06:58:19;;;;;;;;;0.00;0.00;;;;;10.25;85.53;99879.91;5058726;28;45349;-63
2023/11/12 07:00:45;;;;;;;;;0.75;0.75;;;;;10.27;85.72;99882.50;5058225;28;46274;-63
2023/11/12 07:03:11;;;;;;;;;0.00;0.00;;;;;10.25;85.46;99887.03;5058620;28;45416;-63
2023/11/12 07:05:37;;;;;;;;;2.00;0.00;;;;;10.14;85.31;99874.16;5058452;28;45315;-63
2023/11/12 07:08:04;;;;;;;;;0.00;0.00;;;;;10.19;85.50;99877.53;5058437;28;45560;-63
2023/11/12 07:10:29;;;;;;;;;2.00;0.75;;;;;10.22;85.78;99887.19;5058345;28;46075;-63
2023/11/12 07:12:54;;;;;;;;;1.00;1.00;;;;;10.19;86.46;99881.06;5069586;28;45517;-63
2023/11/12 07:15:19;;;;;;;;;0.75;0.75;;;;;10.17;86.64;99880.25;5062377;27;45434;-63
2023/11/12 07:17:49;;;;;;;;;0.00;0.00;;;;;10.26;86.29;99897.66;5068129;28;60339;-63
2023/11/12 07:20:15;;;;;;;;;0.00;0.00;;;;;10.24;86.49;99893.31;5058453;28;47076;-63
2023/11/12 07:22:42;;;;;;;;;0.00;0.00;;;;;10.24;86.51;99895.97;5060588;28;45522;-63
2023/11/12 07:25:09;;;;;;;;;0.25;0.00;;;;;10.26;86.48;99902.13;5062601;28;45339;-63
2023/11/12 07:27:34;;;;;;;;;1.25;0.00;;;;;10.15;86.65;99875.91;5072464;27;45688;-63
2023/11/12 07:30:00;;;;;;;;;0.50;0.50;;;;;10.19;86.22;99889.06;5070301;28;45462;-62
2023/11/12 07:32:25;;;;;;;;;0.25;0.25;;;;;10.22;86.51;99895.19;5077113;28;45438;-63
2023/11/12 07:34:50;;;;;;;;;2.50;2.50;;;;;10.18;86.60;99900.66;5063150;28;45438;-63
2023/11/12 07:37:16;;;;;;;;;2.25;1.00;;;;;10.16;86.37;99905.19;5081998;27;45554;-63
2023/11/12 07:39:41;;;;;;;;;1.00;1.00;;;;;10.11;87.06;99899.19;5079504;27;72911;-63
2023/11/12 07:42:07;;;;;;;;;1.00;1.00;;;;;10.26;86.81;99920.81;5060388;28;46657;-63
2023/11/12 07:44:33;;;;;;;;;2.25;1.00;;;;;10.19;86.71;99910.38;5066942;28;45319;-63
2023/11/12 07:46:59;;;;;;;;;2.00;0.75;;;;;10.11;86.79;99893.00;5064573;28;45506;-63
2023/11/12 07:49:24;;;;;;;;;1.00;1.00;;;;;10.20;87.16;99913.91;5068553;27;45309;-63
2023/11/12 07:51:51;;;;;;;;;1.00;1.00;;;;;10.22;86.50;99925.38;5060723;28;59549;-63
2023/11/12 07:54:16;;;;;;;;;0.00;0.00;;;;;10.22;86.35;99933.38;5061456;28;45398;-63
2023/11/12 07:56:42;;;;;;;;;1.00;1.00;;;;;10.14;86.69;99919.50;5066817;28;45488;-63
2023/11/12 07:59:08;;;;;;;;;1.00;1.00;;;;;10.22;86.76;99924.53;5081248;27;46060;-63
2023/11/12 08:01:33;;;;;;;;;1.00;1.00;;;;;10.16;86.72;99915.00;5074308;27;45708;-63
2023/11/12 08:03:58;;;;;;;;;1.00;1.00;;;;;10.20;86.70;99929.91;5064695;27;45460;-63
2023/11/12 08:06:26;;;;;;;;;0.50;0.50;;;;;10.24;87.46;99938.66;5069545;28;45587;-63
2023/11/12 08:08:51;;;;;;;;;4.00;2.00;;;;;10.23;87.11;99939.59;5067922;27;47046;-63
2023/11/12 08:11:17;;;;;;;;;1.50;1.50;;;;;10.26;87.12;99929.66;5060443;28;45382;-63
2023/11/12 08:13:43;;;;;;;;;0.75;0.75;;;;;10.30;87.68;99933.91;5071168;28;60629;-62
2023/11/12 08:16:09;;;;;;;;;1.00;1.00;;;;;10.27;87.31;99928.72;5072380;27;45533;-64
2023/11/12 08:18:35;;;;;;;;;2.00;2.00;;;;;10.23;87.58;99931.59;5063217;27;46798;-64
2023/11/12 08:21:00;;;;;;;;;1.50;1.50;;;;;10.29;87.39;99941.97;5060907;28;45585;-64
2023/11/12 08:23:25;;;;;;;;;1.00;1.00;;;;;10.30;87.06;99944.56;5060769;28;45310;-64
2023/11/12 08:25:51;;;;;;;;;0.50;0.50;;;;;10.25;87.29;99929.72;5069529;28;51937;-63
2023/11/12 08:28:17;;;;;;;;;1.00;1.00;;;;;10.17;86.96;99935.38;5063152;27;46087;-64
2023/11/12 08:30:42;;;;;;;;;4.00;1.00;;;;;10.18;86.72;99937.13;5066670;28;45359;-63
2023/11/12 08:33:07;;;;;;;;;3.25;1.00;;;;;10.16;87.19;99934.53;5075077;28;59218;-63
2023/11/12 08:35:33;;;;;;;;;0.00;0.00;;;;;10.13;87.46;99936.47;5067732;28;70194;-63
2023/11/12 08:37:59;;;;;;;;;1.00;1.00;;;;;10.20;87.71;99945.91;5058517;28;63499;-63
2023/11/12 08:40:24;;;;;;;;;1.00;1.00;;;;;10.27;88.02;99959.84;5060750;28;45759;-64
2023/11/12 08:42:49;;;;;;;;;1.00;1.00;;;;;10.18;87.76;99945.97;5065168;28;45398;-64
2023/11/12 08:45:15;;;;;;;;;2.25;1.00;;;;;10.13;88.26;99932.00;5068857;28;61433;-64
2023/11/12 08:47:40;;;;;;;;;0.50;0.50;;;;;10.19;87.98;99949.53;5069501;28;62511;-64
2023/11/12 08:50:06;;;;;;;;;1.00;1.00;;;;;10.15;87.65;99948.78;5076058;28;46324;-64
2023/11/12 08:52:31;;;;;;;;;1.25;1.00;;;;;10.14;87.74;99943.50;5065282;27;45656;-64
2023/11/12 08:54:56;;;;;;;;;0.50;0.00;;;;;10.22;88.08;99959.19;5073657;28;45567;-63
2023/11/12 08:57:22;;;;;;;;;1.00;0.00;;;;;10.18;87.99;99948.66;5066269;28;55120;-64
2023/11/12 08:59:47;;;;;;;;;2.00;2.00;;;;;10.22;88.02;99953.84;5069199;28;57257;-64
2023/11/12 09:02:12;;;;;;;;;1.50;1.50;;;;;10.19;88.03;99949.53;5060518;28;45375;-64
2023/11/12 09:04:38;;;;;;;;;2.75;2.00;;;;;10.19;88.22;99952.22;5060253;28;45538;-64
2023/11/12 09:07:04;;;;;;;;;1.75;1.75;;;;;10.16;88.32;99953.19;5064405;28;46313;-63
2023/11/12 09:09:29;;;;;;;;;1.25;1.00;;;;;10.19;88.47;99965.53;5061132;28;45379;-63
2023/11/12 09:11:56;;;;;;;;;2.00;1.50;;;;;10.22;88.54;99967.19;5072825;28;45377;-63
2023/11/12 09:14:22;;;;;;;;;2.50;1.75;;;;;10.32;88.82;99981.91;5078397;28;45314;-63
2023/11/12 09:16:47;;;;;;;;;1.00;1.00;;;;;10.05;88.39;99938.59;5075891;27;46214;-63
2023/11/12 09:19:12;;;;;;;;;1.00;1.00;;;;;10.29;89.10;99973.97;5067117;28;52391;-63
2023/11/12 09:21:38;;;;;;;;;2.00;0.75;;;;;10.37;88.47;99982.56;5073809;28;45306;-63
2023/11/12 09:24:03;;;;;;;;;1.00;1.00;;;;;10.37;88.76;99990.56;5062833;28;45402;-64
2023/11/12 09:26:29;;;;;;;;;1.00;1.00;;;;;10.40;88.84;100001.09;5061840;28;45335;-63
2023/11/12 09:28:54;;;;;;;;;1.25;1.00;;;;;10.34;89.00;99988.91;5081410;27;45527;-63
2023/11/12 09:31:20;;;;;;;;;0.00;0.00;;;;;10.31;89.13;99981.00;5075030;28;45421;-63
2023/11/12 09:33:46;;;;;;;;;1.00;1.00;;;;;10.36;88.83;100004.84;5069850;28;45581;-63
2023/11/12 09:36:17;;;;;;;;;1.75;1.00;;;;;10.46;88.81;100030.19;5075404;28;46550;-63
2023/11/12 09:38:42;;;;;;;;;2.00;1.00;;;;;10.45;89.23;100030.25;5061660;27;45758;-63
2023/11/12 09:41:12;;;;;;;;;1.00;1.00;;;;;10.41;89.18;100015.31;5059282;28;45402;-63
2023/11/12 09:43:38;;;;;;;;;0.25;0.25;;;;;10.49;89.10;100030.06;5066745;28;45501;-63
2023/11/12 09:46:08;;;;;;;;;2.00;1.00;;;;;10.47;89.49;100015.91;5063053;28;45999;-63
2023/11/12 09:48:39;;;;;;;;;1.00;1.00;;;;;10.51;89.07;100025.53;5067924;27;45306;-63
2023/11/12 09:51:06;;;;;;;;;1.00;0.75;;;;;10.45;89.14;100019.59;5072718;28;45431;-64
2023/11/12 09:53:36;;;;;;;;;2.00;1.00;;;;;10.49;89.18;100021.16;5065677;28;45420;-64
2023/11/12 09:56:08;;;;;;;;;2.00;2.00;;;;;10.54;89.79;100032.50;5079413;28;45334;-64
2023/11/12 09:58:38;;;;;;;;;1.50;1.00;;;;;10.57;89.23;100029.72;5078376;28;45594;-64
2023/11/12 10:01:06;;;;;;;;;3.00;2.25;;;;;10.49;89.86;100007.84;5079753;27;45456;-64
2023/11/12 10:03:32;;;;;;;;;2.00;2.00;;;;;10.48;90.33;100000.78;5064559;28;45997;-64
2023/11/12 10:05:58;;;;;;;;;3.75;2.75;;;;;10.50;89.67;100004.25;5062355;27;45955;-65
2023/11/12 10:08:23;;;;;;;;;3.00;3.00;;;;;10.55;89.72;100019.09;5066052;27;45689;-65
2023/11/12 10:10:49;;;;;;;;;3.50;2.00;;;;;10.64;89.83;100032.97;5070317;27;45747;-65
2023/11/12 10:13:14;;;;;;;;;2.00;2.00;;;;;10.61;90.53;100020.66;5070646;27;45863;-65
2023/11/12 10:15:40;;;;;;;;;2.00;2.00;;;;;10.66;89.88;100023.09;5072932;27;59301;-65
2023/11/12 10:18:06;;;;;;;;;2.75;2.75;;;;;10.67;90.28;100023.03;5074778;27;67492;-65
2023/11/12 10:20:39;;;;;;;;;2.00;2.00;;;;;10.80;90.16;100033.19;5074646;27;45670;-65
2023/11/12 10:23:06;;;;;;;;;3.00;3.00;;;;;10.80;90.08;100034.03;5069227;28;45745;-65
2023/11/12 10:25:36;;;;;;;;;3.00;3.00;;;;;10.85;90.29;100041.84;5075716;28;45675;-64
2023/11/12 10:28:04;;;;;;;;;6.00;5.00;;;;;10.82;90.18;100025.97;5075630;27;45724;-65
2023/11/12 10:30:29;;;;;;;;;3.75;3.75;;;;;10.89;90.36;100033.66;5075418;27;45555;-65
2023/11/12 10:33:00;;;;;;;;;2.00;2.00;;;;;10.88;90.45;100028.38;5066820;27;45565;-64
2023/11/12 10:35:28;;;;;;;;;4.25;4.25;;;;;10.84;90.83;100018.75;5062840;28;46370;-64
2023/11/12 10:38:00;;;;;;;;;5.25;5.25;;;;;10.88;91.04;100020.38;5057346;27;45556;-64
2023/11/12 10:40:25;;;;;;;;;4.00;4.00;;;;;10.93;91.09;100007.66;5063034;28;45438;-65
2023/11/12 10:42:58;;;;;;;;;3.75;3.75;;;;;11.00;91.05;100013.59;5057524;28;45561;-65
2023/11/12 10:45:24;;;;;;;;;4.00;4.00;;;;;10.99;91.25;100019.84;5059979;28;45848;-65
2023/11/12 10:47:54;;;;;;;;;2.25;2.25;;;;;10.98;90.89;100019.00;5060631;28;45476;-65
2023/11/12 10:50:22;;;;;;;;;4.00;2.50;;;;;11.02;91.06;100017.06;5059633;28;45573;-65
2023/11/12 10:52:48;;;;;;;;;3.75;2.75;;;;;11.10;91.37;100026.44;5067111;28;45567;-65
2023/11/12 10:55:15;;;;;;;;;5.00;4.00;;;;;11.08;91.32;100014.97;5061438;28;46639;-65
2023/11/12 10:57:43;;;;;;;;;4.00;4.00;;;;;11.19;91.47;100030.47;5069335;27;45831;-65
2023/11/12 11:00:12;;;;;;;;;5.00;5.00;;;;;11.24;91.30;100043.63;5069624;28;46108;-63
2023/11/12 11:02:44;;;;;;;;;5.00;5.00;;;;;11.23;91.31;100032.09;5061592;28;45725;-64
2023/11/12 11:05:12;;;;;;;;;4.50;4.00;;;;;11.25;91.07;100027.53;5075455;28;47781;-64
2023/11/12 11:07:38;;;;;;;;;4.50;4.50;;;;;11.29;91.42;100029.16;5072206;28;45467;-64
2023/11/12 11:10:05;;;;;;;;;9.75;8.25;;;;;11.30;91.23;100030.00;5058840;28;45642;-65
2023/11/12 11:12:31;;;;;;;;;6.00;6.00;;;;;11.11;91.53;99997.94;5073498;28;45469;-65
2023/11/12 11:15:35;;;;;;;;;7.00;7.00;;;;;11.44;91.59;100043.59;5063974;28;46098;-65
2023/11/12 11:18:03;;;;;;;;;6.50;6.50;;;;;11.43;91.18;100039.19;5069593;28;45620;-64
2023/11/12 11:21:03;;;;;;;;;8.50;7.00;;;;;11.48;91.31;100055.00;5063799;28;45536;-65
2023/11/12 11:23:47;;;;;;;;;6.75;5.75;;;;;11.47;91.12;100055.94;5064492;27;45834;-65
2023/11/12 11:26:27;;;;;;;;;7.00;7.00;;;;;11.48;91.38;100058.53;5064644;28;46968;-64